Aviation Digital Data Service (ADDS)

Output produced by METARs form (2136 UTC 08 August 2020)
found at http://www.aviationweather.gov/metar/data/
 
METAR text: LYBE 082130Z 29003KT CAVOK 23/18 Q1016 NOSIG
Conditions at: LYBE (BELGRADE/SURCIN , CS) observed 2130 UTC 08 August 2020
Temperature: 23.0°C (73°F)
Dewpoint: 18.0°C (64°F) [RH = 73%]
Pressure (altimeter): 30.00 inches Hg (1016.0 mb)
Winds: from the WNW (290 degrees) at 3 MPH (3 knots; 1.5 m/s)
Visibility: 6 or more miles (10+ km)
Ceiling: ceiling and visibility are OK
Clouds: unknown
Weather: no significant weather observed at this time

METAR text: LYBE 082100Z 30003KT 270V340 CAVOK 23/17 Q1016 NOSIG
Conditions at: LYBE (BELGRADE/SURCIN , CS) observed 2100 UTC 08 August 2020
Temperature: 23.0°C (73°F)
Dewpoint: 17.0°C (63°F) [RH = 69%]
Pressure (altimeter): 30.00 inches Hg (1016.0 mb)
Winds: from the WNW (300 degrees) at 3 MPH (3 knots; 1.5 m/s)
Visibility: 6 or more miles (10+ km)
Ceiling: ceiling and visibility are OK
Clouds: unknown
Weather: no significant weather observed at this time

METAR text: LYBE 082030Z 31003KT CAVOK 24/18 Q1016 NOSIG
Conditions at: LYBE (BELGRADE/SURCIN , CS) observed 2030 UTC 08 August 2020
Temperature: 24.0°C (75°F)
Dewpoint: 18.0°C (64°F) [RH = 69%]
Pressure (altimeter): 30.00 inches Hg (1016.0 mb)
Winds: from the NW (310 degrees) at 3 MPH (3 knots; 1.5 m/s)
Visibility: 6 or more miles (10+ km)
Ceiling: ceiling and visibility are OK
Clouds: unknown
Weather: no significant weather observed at this time

METAR text: LYBE 082000Z 28003KT 260V320 CAVOK 26/17 Q1016 NOSIG
Conditions at: LYBE (BELGRADE/SURCIN , CS) observed 2000 UTC 08 August 2020
Temperature: 26.0°C (79°F)
Dewpoint: 17.0°C (63°F) [RH = 58%]
Pressure (altimeter): 30.00 inches Hg (1016.0 mb)
Winds: from the W (280 degrees) at 3 MPH (3 knots; 1.5 m/s)
Visibility: 6 or more miles (10+ km)
Ceiling: ceiling and visibility are OK
Clouds: unknown
Weather: no significant weather observed at this time

METAR text: LYBE 081930Z VRB01KT CAVOK 27/16 Q1016 NOSIG
Conditions at: LYBE (BELGRADE/SURCIN , CS) observed 1930 UTC 08 August 2020
Temperature: 27.0°C (81°F)
Dewpoint: 16.0°C (61°F) [RH = 51%]
Pressure (altimeter): 30.00 inches Hg (1016.0 mb)
Winds: variable direction winds at 1 MPH (1 knots; 0.5 m/s)
Visibility: 6 or more miles (10+ km)
Ceiling: ceiling and visibility are OK
Clouds: unknown
Weather: no significant weather observed at this time

METAR text: LYBE 081900Z 05002KT CAVOK 27/17 Q1016 NOSIG
Conditions at: LYBE (BELGRADE/SURCIN , CS) observed 1900 UTC 08 August 2020
Temperature: 27.0°C (81°F)
Dewpoint: 17.0°C (63°F) [RH = 54%]
Pressure (altimeter): 30.00 inches Hg (1016.0 mb)
Winds: from the NE (50 degrees) at 2 MPH (2 knots; 1.0 m/s)
Visibility: 6 or more miles (10+ km)
Ceiling: ceiling and visibility are OK
Clouds: unknown
Weather: no significant weather observed at this time

METAR text: LYBE 081830Z 08004KT CAVOK 26/18 Q1016 NOSIG
Conditions at: LYBE (BELGRADE/SURCIN , CS) observed 1830 UTC 08 August 2020
Temperature: 26.0°C (79°F)
Dewpoint: 18.0°C (64°F) [RH = 61%]
Pressure (altimeter): 30.00 inches Hg (1016.0 mb)
Winds: from the E (80 degrees) at 5 MPH (4 knots; 2.1 m/s)
Visibility: 6 or more miles (10+ km)
Ceiling: ceiling and visibility are OK
Clouds: unknown
Weather: no significant weather observed at this time

METAR text: LYBE 081800Z 04004KT 010V080 CAVOK 27/20 Q1016 NOSIG
Conditions at: LYBE (BELGRADE/SURCIN , CS) observed 1800 UTC 08 August 2020
Temperature: 27.0°C (81°F)
Dewpoint: 20.0°C (68°F) [RH = 66%]
Pressure (altimeter): 30.00 inches Hg (1016.0 mb)
Winds: from the NE (40 degrees) at 5 MPH (4 knots; 2.1 m/s)
Visibility: 6 or more miles (10+ km)
Ceiling: ceiling and visibility are OK
Clouds: unknown
Weather: no significant weather observed at this time

METAR text: LYBE 081730Z VRB03KT CAVOK 28/22 Q1016 NOSIG
Conditions at: LYBE (BELGRADE/SURCIN , CS) observed 1730 UTC 08 August 2020
Temperature: 28.0°C (82°F)
Dewpoint: 22.0°C (72°F) [RH = 70%]
Pressure (altimeter): 30.00 inches Hg (1016.0 mb)
Winds: variable direction winds at 3 MPH (3 knots; 1.5 m/s)
Visibility: 6 or more miles (10+ km)
Ceiling: ceiling and visibility are OK
Clouds: unknown
Weather: no significant weather observed at this time

METAR text: LYBE 081700Z 00000KT CAVOK 29/21 Q1016 NOSIG
Conditions at: LYBE (BELGRADE/SURCIN , CS) observed 1700 UTC 08 August 2020
Temperature: 29.0°C (84°F)
Dewpoint: 21.0°C (70°F) [RH = 62%]
Pressure (altimeter): 30.00 inches Hg (1016.0 mb)
Winds: calm
Visibility: 6 or more miles (10+ km)
Ceiling: ceiling and visibility are OK
Clouds: unknown
Weather: no significant weather observed at this time

METAR text: LYBE 081630Z 31005KT 280V340 CAVOK 29/21 Q1016 NOSIG
Conditions at: LYBE (BELGRADE/SURCIN , CS) observed 1630 UTC 08 August 2020
Temperature: 29.0°C (84°F)
Dewpoint: 21.0°C (70°F) [RH = 62%]
Pressure (altimeter): 30.00 inches Hg (1016.0 mb)
Winds: from the NW (310 degrees) at 6 MPH (5 knots; 2.6 m/s)
Visibility: 6 or more miles (10+ km)
Ceiling: ceiling and visibility are OK
Clouds: unknown
Weather: no significant weather observed at this time

METAR text: LYBE 081600Z 28008KT CAVOK 29/21 Q1016 NOSIG
Conditions at: LYBE (BELGRADE/SURCIN , CS) observed 1600 UTC 08 August 2020
Temperature: 29.0°C (84°F)
Dewpoint: 21.0°C (70°F) [RH = 62%]
Pressure (altimeter): 30.00 inches Hg (1016.0 mb)
Winds: from the W (280 degrees) at 9 MPH (8 knots; 4.1 m/s)
Visibility: 6 or more miles (10+ km)
Ceiling: ceiling and visibility are OK
Clouds: unknown
Weather: no significant weather observed at this time

METAR text: LYBE 081530Z 29009KT CAVOK 30/21 Q1016 NOSIG
Conditions at: LYBE (BELGRADE/SURCIN , CS) observed 1530 UTC 08 August 2020
Temperature: 30.0°C (86°F)
Dewpoint: 21.0°C (70°F) [RH = 59%]
Pressure (altimeter): 30.00 inches Hg (1016.0 mb)
Winds: from the WNW (290 degrees) at 10 MPH (9 knots; 4.6 m/s)
Visibility: 6 or more miles (10+ km)
Ceiling: ceiling and visibility are OK
Clouds: unknown
Weather: no significant weather observed at this time

METAR text: LYBE 081500Z 29007KT 260V330 9999 FEW030 30/21 Q1016 NOSIG
Conditions at: LYBE (BELGRADE/SURCIN , CS) observed 1500 UTC 08 August 2020
Temperature: 30.0°C (86°F)
Dewpoint: 21.0°C (70°F) [RH = 59%]
Pressure (altimeter): 30.00 inches Hg (1016.0 mb)
Winds: from the WNW (290 degrees) at 8 MPH (7 knots; 3.6 m/s)
Visibility: 6 or more miles (10+ km)
Ceiling: at least 12,000 feet AGL
Clouds: few clouds at 3000 feet AGL
Weather: no significant weather observed at this time

METAR text: LYBE 081430Z 30006KT 270V350 9999 FEW030 30/21 Q1016 NOSIG
Conditions at: LYBE (BELGRADE/SURCIN , CS) observed 1430 UTC 08 August 2020
Temperature: 30.0°C (86°F)
Dewpoint: 21.0°C (70°F) [RH = 59%]
Pressure (altimeter): 30.00 inches Hg (1016.0 mb)
Winds: from the WNW (300 degrees) at 7 MPH (6 knots; 3.1 m/s)
Visibility: 6 or more miles (10+ km)
Ceiling: at least 12,000 feet AGL
Clouds: few clouds at 3000 feet AGL
Weather: no significant weather observed at this time

METAR text: LYBE 081400Z 33007KT 280V360 9999 FEW030 30/21 Q1017 NOSIG
Conditions at: LYBE (BELGRADE/SURCIN , CS) observed 1400 UTC 08 August 2020
Temperature: 30.0°C (86°F)
Dewpoint: 21.0°C (70°F) [RH = 59%]
Pressure (altimeter): 30.03 inches Hg (1017.0 mb)
Winds: from the NNW (330 degrees) at 8 MPH (7 knots; 3.6 m/s)
Visibility: 6 or more miles (10+ km)
Ceiling: at least 12,000 feet AGL
Clouds: few clouds at 3000 feet AGL
Weather: no significant weather observed at this time

METAR text: LYBE 081330Z 31009KT CAVOK 30/20 Q1017 NOSIG
Conditions at: LYBE (BELGRADE/SURCIN , CS) observed 1330 UTC 08 August 2020
Temperature: 30.0°C (86°F)
Dewpoint: 20.0°C (68°F) [RH = 55%]
Pressure (altimeter): 30.03 inches Hg (1017.0 mb)
Winds: from the NW (310 degrees) at 10 MPH (9 knots; 4.6 m/s)
Visibility: 6 or more miles (10+ km)
Ceiling: ceiling and visibility are OK
Clouds: unknown
Weather: no significant weather observed at this time

METAR text: LYBE 081300Z 33008KT 300V020 9999 FEW030 29/20 Q1017 NOSIG
Conditions at: LYBE (BELGRADE/SURCIN , CS) observed 1300 UTC 08 August 2020
Temperature: 29.0°C (84°F)
Dewpoint: 20.0°C (68°F) [RH = 58%]
Pressure (altimeter): 30.03 inches Hg (1017.0 mb)
Winds: from the NNW (330 degrees) at 9 MPH (8 knots; 4.1 m/s)
Visibility: 6 or more miles (10+ km)
Ceiling: at least 12,000 feet AGL
Clouds: few clouds at 3000 feet AGL
Weather: no significant weather observed at this time

METAR text: LYBE 081200Z 30005KT 250V040 9999 FEW030 28/20 Q1018 NOSIG
Conditions at: LYBE (BELGRADE/SURCIN , CS) observed 1200 UTC 08 August 2020
Temperature: 28.0°C (82°F)
Dewpoint: 20.0°C (68°F) [RH = 62%]
Pressure (altimeter): 30.06 inches Hg (1018.0 mb)
Winds: from the WNW (300 degrees) at 6 MPH (5 knots; 2.6 m/s)
Visibility: 6 or more miles (10+ km)
Ceiling: at least 12,000 feet AGL
Clouds: few clouds at 3000 feet AGL
Weather: no significant weather observed at this time

METAR text: LYBE 081130Z 30006KT 220V360 9999 FEW030 28/20 Q1018 NOSIG
Conditions at: LYBE (BELGRADE/SURCIN , CS) observed 1130 UTC 08 August 2020
Temperature: 28.0°C (82°F)
Dewpoint: 20.0°C (68°F) [RH = 62%]
Pressure (altimeter): 30.06 inches Hg (1018.0 mb)
Winds: from the WNW (300 degrees) at 7 MPH (6 knots; 3.1 m/s)
Visibility: 6 or more miles (10+ km)
Ceiling: at least 12,000 feet AGL
Clouds: few clouds at 3000 feet AGL
Weather: no significant weather observed at this time

METAR text: LYBE 081100Z 31009KT 260V360 CAVOK 27/20 Q1018 NOSIG
Conditions at: LYBE (BELGRADE/SURCIN , CS) observed 1100 UTC 08 August 2020
Temperature: 27.0°C (81°F)
Dewpoint: 20.0°C (68°F) [RH = 66%]
Pressure (altimeter): 30.06 inches Hg (1018.0 mb)
Winds: from the NW (310 degrees) at 10 MPH (9 knots; 4.6 m/s)
Visibility: 6 or more miles (10+ km)
Ceiling: ceiling and visibility are OK
Clouds: unknown
Weather: no significant weather observed at this time

METAR text: LYBE 081030Z 31007KT 260V360 CAVOK 26/20 Q1018 NOSIG
Conditions at: LYBE (BELGRADE/SURCIN , CS) observed 1030 UTC 08 August 2020
Temperature: 26.0°C (79°F)
Dewpoint: 20.0°C (68°F) [RH = 70%]
Pressure (altimeter): 30.06 inches Hg (1018.0 mb)
Winds: from the NW (310 degrees) at 8 MPH (7 knots; 3.6 m/s)
Visibility: 6 or more miles (10+ km)
Ceiling: ceiling and visibility are OK
Clouds: unknown
Weather: no significant weather observed at this time

METAR text: LYBE 081000Z 30008KT 250V340 9999 FEW023 26/20 Q1019 NOSIG
Conditions at: LYBE (BELGRADE/SURCIN , CS) observed 1000 UTC 08 August 2020
Temperature: 26.0°C (79°F)
Dewpoint: 20.0°C (68°F) [RH = 70%]
Pressure (altimeter): 30.09 inches Hg (1019.0 mb)
Winds: from the WNW (300 degrees) at 9 MPH (8 knots; 4.1 m/s)
Visibility: 6 or more miles (10+ km)
Ceiling: at least 12,000 feet AGL
Clouds: few clouds at 2300 feet AGL
Weather: no significant weather observed at this time

METAR text: LYBE 080930Z VRB04KT 9999 FEW023 25/19 Q1019 NOSIG
Conditions at: LYBE (BELGRADE/SURCIN , CS) observed 0930 UTC 08 August 2020
Temperature: 25.0°C (77°F)
Dewpoint: 19.0°C (66°F) [RH = 69%]
Pressure (altimeter): 30.09 inches Hg (1019.0 mb)
Winds: variable direction winds at 5 MPH (4 knots; 2.1 m/s)
Visibility: 6 or more miles (10+ km)
Ceiling: at least 12,000 feet AGL
Clouds: few clouds at 2300 feet AGL
Weather: no significant weather observed at this time

METAR text: LYBE 080900Z VRB05KT 9999 FEW023 25/19 Q1019 NOSIG
Conditions at: LYBE (BELGRADE/SURCIN , CS) observed 0900 UTC 08 August 2020
Temperature: 25.0°C (77°F)
Dewpoint: 19.0°C (66°F) [RH = 69%]
Pressure (altimeter): 30.09 inches Hg (1019.0 mb)
Winds: variable direction winds at 6 MPH (5 knots; 2.6 m/s)
Visibility: 6 or more miles (10+ km)
Ceiling: at least 12,000 feet AGL
Clouds: few clouds at 2300 feet AGL
Weather: no significant weather observed at this time

METAR text: LYBE 080830Z 32006KT 270V010 9999 FEW017 24/19 Q1019 NOSIG
Conditions at: LYBE (BELGRADE/SURCIN , CS) observed 0830 UTC 08 August 2020
Temperature: 24.0°C (75°F)
Dewpoint: 19.0°C (66°F) [RH = 74%]
Pressure (altimeter): 30.09 inches Hg (1019.0 mb)
Winds: from the NW (320 degrees) at 7 MPH (6 knots; 3.1 m/s)
Visibility: 6 or more miles (10+ km)
Ceiling: at least 12,000 feet AGL
Clouds: few clouds at 1700 feet AGL
Weather: no significant weather observed at this time

METAR text: LYBE 080800Z 30005KT 260V360 9999 FEW017 23/19 Q1019 NOSIG
Conditions at: LYBE (BELGRADE/SURCIN , CS) observed 0800 UTC 08 August 2020
Temperature: 23.0°C (73°F)
Dewpoint: 19.0°C (66°F) [RH = 78%]
Pressure (altimeter): 30.09 inches Hg (1019.0 mb)
Winds: from the WNW (300 degrees) at 6 MPH (5 knots; 2.6 m/s)
Visibility: 6 or more miles (10+ km)
Ceiling: at least 12,000 feet AGL
Clouds: few clouds at 1700 feet AGL
Weather: no significant weather observed at this time

METAR text: LYBE 080730Z VRB03KT 9999 SCT013 22/19 Q1019 NOSIG
Conditions at: LYBE (BELGRADE/SURCIN , CS) observed 0730 UTC 08 August 2020
Temperature: 22.0°C (72°F)
Dewpoint: 19.0°C (66°F) [RH = 83%]
Pressure (altimeter): 30.09 inches Hg (1019.0 mb)
Winds: variable direction winds at 3 MPH (3 knots; 1.5 m/s)
Visibility: 6 or more miles (10+ km)
Ceiling: at least 12,000 feet AGL
Clouds: scattered clouds at 1300 feet AGL
Weather: no significant weather observed at this time

METAR text: LYBE 080700Z 35004KT 300V020 9999 SCT011 22/19 Q1019 NOSIG
Conditions at: LYBE (BELGRADE/SURCIN , CS) observed 0700 UTC 08 August 2020
Temperature: 22.0°C (72°F)
Dewpoint: 19.0°C (66°F) [RH = 83%]
Pressure (altimeter): 30.09 inches Hg (1019.0 mb)
Winds: from the N (350 degrees) at 5 MPH (4 knots; 2.1 m/s)
Visibility: 6 or more miles (10+ km)
Ceiling: at least 12,000 feet AGL
Clouds: scattered clouds at 1100 feet AGL
Weather: no significant weather observed at this time

METAR text: LYBE 080630Z 36003KT 300V060 9999 SCT008 21/19 Q1019 NOSIG
Conditions at: LYBE (BELGRADE/SURCIN , CS) observed 0630 UTC 08 August 2020
Temperature: 21.0°C (70°F)
Dewpoint: 19.0°C (66°F) [RH = 88%]
Pressure (altimeter): 30.09 inches Hg (1019.0 mb)
Winds: from the N (360 degrees) at 3 MPH (3 knots; 1.5 m/s)
Visibility: 6 or more miles (10+ km)
Ceiling: at least 12,000 feet AGL
Clouds: scattered clouds at 800 feet AGL
Weather: no significant weather observed at this time

METAR text: LYBE 080600Z VRB02KT 9999 FEW005 21/19 Q1019 NOSIG
Conditions at: LYBE (BELGRADE/SURCIN , CS) observed 0600 UTC 08 August 2020
Temperature: 21.0°C (70°F)
Dewpoint: 19.0°C (66°F) [RH = 88%]
Pressure (altimeter): 30.09 inches Hg (1019.0 mb)
Winds: variable direction winds at 2 MPH (2 knots; 1.0 m/s)
Visibility: 6 or more miles (10+ km)
Ceiling: at least 12,000 feet AGL
Clouds: few clouds at 500 feet AGL
Weather: no significant weather observed at this time

METAR text: LYBE 080530Z 00000KT 4000 0600E R12/P2000U R30/P2000U BCFG BR FEW002 20/19 Q1019 NOSIG
Conditions at: LYBE (BELGRADE/SURCIN , CS) observed 0530 UTC 08 August 2020
Temperature: 20.0°C (68°F)
Dewpoint: 19.0°C (66°F) [RH = 94%]
Pressure (altimeter): 30.09 inches Hg (1019.0 mb)
Winds: calm
Visibility: 2.49 miles (4.01 km)
Ceiling: at least 12,000 feet AGL
Clouds: few clouds at 200 feet AGL
Weather: BCFG BR  (patches of fog, mist)

METAR text: LYBE 080500Z 16003KT 3500 0500NE R12/0550D R30/P2000U PRFG BR FEW005 19/19 Q1018 BECMG 0500 FG
Conditions at: LYBE (BELGRADE/SURCIN , CS) observed 0500 UTC 08 August 2020
Temperature: 19.0°C (66°F)
Dewpoint: 19.0°C (66°F) [RH = 100%]
Pressure (altimeter): 30.06 inches Hg (1018.0 mb)
Winds: from the SSE (160 degrees) at 3 MPH (3 knots; 1.5 m/s)
Visibility: 2.17 miles (3.49 km)
Ceiling: at least 12,000 feet AGL
Clouds: few clouds at 500 feet AGL
Weather: PRFG BR  (partial fog, mist)

METAR text: LYBE 080430Z 00000KT 3500 BR NSC 18/18 Q1018 NOSIG
Conditions at: LYBE (BELGRADE/SURCIN , CS) observed 0430 UTC 08 August 2020
Temperature: 18.0°C (64°F)
Dewpoint: 18.0°C (64°F) [RH = 100%]
Pressure (altimeter): 30.06 inches Hg (1018.0 mb)
Winds: calm
Visibility: 2.17 miles (3.49 km)
Ceiling: at least 12,000 feet AGL
Clouds: sky clear below 12,000 feet AGL
Weather: BR  (mist)

METAR text: LYBE 080400Z 14002KT 4000 MIFG BR NSC 18/18 Q1018 NOSIG
Conditions at: LYBE (BELGRADE/SURCIN , CS) observed 0400 UTC 08 August 2020
Temperature: 18.0°C (64°F)
Dewpoint: 18.0°C (64°F) [RH = 100%]
Pressure (altimeter): 30.06 inches Hg (1018.0 mb)
Winds: from the SE (140 degrees) at 2 MPH (2 knots; 1.0 m/s)
Visibility: 2.49 miles (4.01 km)
Ceiling: at least 12,000 feet AGL
Clouds: sky clear below 12,000 feet AGL
Weather: MIFG BR  (shallow fog, mist)

METAR text: LYBE 080330Z 13003KT 6000 MIFG NSC 18/18 Q1018 NOSIG
Conditions at: LYBE (BELGRADE/SURCIN , CS) observed 0330 UTC 08 August 2020
Temperature: 18.0°C (64°F)
Dewpoint: 18.0°C (64°F) [RH = 100%]
Pressure (altimeter): 30.06 inches Hg (1018.0 mb)
Winds: from the SE (130 degrees) at 3 MPH (3 knots; 1.5 m/s)
Visibility: 4 miles ( 6 km)
Ceiling: at least 12,000 feet AGL
Clouds: sky clear below 12,000 feet AGL
Weather: MIFG  (shallow fog)

METAR text: LYBE 080300Z 08003KT 8000 NSC 18/18 Q1017 NOSIG
Conditions at: LYBE (BELGRADE/SURCIN , CS) observed 0300 UTC 08 August 2020
Temperature: 18.0°C (64°F)
Dewpoint: 18.0°C (64°F) [RH = 100%]
Pressure (altimeter): 30.03 inches Hg (1017.0 mb)
Winds: from the E (80 degrees) at 3 MPH (3 knots; 1.5 m/s)
Visibility: 5 miles ( 8 km)
Ceiling: at least 12,000 feet AGL
Clouds: sky clear below 12,000 feet AGL
Weather: no significant weather observed at this time

METAR text: LYBE 080230Z 11003KT 8000 NSC 18/18 Q1017 NOSIG
Conditions at: LYBE (BELGRADE/SURCIN , CS) observed 0230 UTC 08 August 2020
Temperature: 18.0°C (64°F)
Dewpoint: 18.0°C (64°F) [RH = 100%]
Pressure (altimeter): 30.03 inches Hg (1017.0 mb)
Winds: from the ESE (110 degrees) at 3 MPH (3 knots; 1.5 m/s)
Visibility: 5 miles ( 8 km)
Ceiling: at least 12,000 feet AGL
Clouds: sky clear below 12,000 feet AGL
Weather: no significant weather observed at this time

METAR text: LYBE 080200Z 08003KT 050V110 CAVOK 18/18 Q1017 NOSIG
Conditions at: LYBE (BELGRADE/SURCIN , CS) observed 0200 UTC 08 August 2020
Temperature: 18.0°C (64°F)
Dewpoint: 18.0°C (64°F) [RH = 100%]
Pressure (altimeter): 30.03 inches Hg (1017.0 mb)
Winds: from the E (80 degrees) at 3 MPH (3 knots; 1.5 m/s)
Visibility: 6 or more miles (10+ km)
Ceiling: ceiling and visibility are OK
Clouds: unknown
Weather: no significant weather observed at this time

METAR text: LYBE 080130Z 12003KT CAVOK 18/18 Q1017 NOSIG
Conditions at: LYBE (BELGRADE/SURCIN , CS) observed 0130 UTC 08 August 2020
Temperature: 18.0°C (64°F)
Dewpoint: 18.0°C (64°F) [RH = 100%]
Pressure (altimeter): 30.03 inches Hg (1017.0 mb)
Winds: from the ESE (120 degrees) at 3 MPH (3 knots; 1.5 m/s)
Visibility: 6 or more miles (10+ km)
Ceiling: ceiling and visibility are OK
Clouds: unknown
Weather: no significant weather observed at this time

METAR text: LYBE 080100Z 36002KT CAVOK 18/18 Q1017 NOSIG
Conditions at: LYBE (BELGRADE/SURCIN , CS) observed 0100 UTC 08 August 2020
Temperature: 18.0°C (64°F)
Dewpoint: 18.0°C (64°F) [RH = 100%]
Pressure (altimeter): 30.03 inches Hg (1017.0 mb)
Winds: from the N (360 degrees) at 2 MPH (2 knots; 1.0 m/s)
Visibility: 6 or more miles (10+ km)
Ceiling: ceiling and visibility are OK
Clouds: unknown
Weather: no significant weather observed at this time

METAR text: LYBE 080030Z 35005KT CAVOK 18/18 Q1017 NOSIG
Conditions at: LYBE (BELGRADE/SURCIN , CS) observed 0030 UTC 08 August 2020
Temperature: 18.0°C (64°F)
Dewpoint: 18.0°C (64°F) [RH = 100%]
Pressure (altimeter): 30.03 inches Hg (1017.0 mb)
Winds: from the N (350 degrees) at 6 MPH (5 knots; 2.6 m/s)
Visibility: 6 or more miles (10+ km)
Ceiling: ceiling and visibility are OK
Clouds: unknown
Weather: no significant weather observed at this time

METAR text: LYBE 080000Z 35005KT CAVOK 18/18 Q1017 NOSIG
Conditions at: LYBE (BELGRADE/SURCIN , CS) observed 0000 UTC 08 August 2020
Temperature: 18.0°C (64°F)
Dewpoint: 18.0°C (64°F) [RH = 100%]
Pressure (altimeter): 30.03 inches Hg (1017.0 mb)
Winds: from the N (350 degrees) at 6 MPH (5 knots; 2.6 m/s)
Visibility: 6 or more miles (10+ km)
Ceiling: ceiling and visibility are OK
Clouds: unknown
Weather: no significant weather observed at this time

METAR text: LYBE 072330Z 27003KT 9999 SCT040 19/18 Q1017 NOSIG
Conditions at: LYBE (BELGRADE/SURCIN , CS) observed 2330 UTC 07 August 2020
Temperature: 19.0°C (66°F)
Dewpoint: 18.0°C (64°F) [RH = 94%]
Pressure (altimeter): 30.03 inches Hg (1017.0 mb)
Winds: from the W (270 degrees) at 3 MPH (3 knots; 1.5 m/s)
Visibility: 6 or more miles (10+ km)
Ceiling: at least 12,000 feet AGL
Clouds: scattered clouds at 4000 feet AGL
Weather: no significant weather observed at this time

METAR text: LYBE 072300Z 19005KT 9999 TS FEW030CB 19/18 Q1017 RERA BECMG NSW BKN040
Conditions at: LYBE (BELGRADE/SURCIN , CS) observed 2300 UTC 07 August 2020
Temperature: 19.0°C (66°F)
Dewpoint: 18.0°C (64°F) [RH = 94%]
Pressure (altimeter): 30.03 inches Hg (1017.0 mb)
Winds: from the S (190 degrees) at 6 MPH (5 knots; 2.6 m/s)
Visibility: 6 or more miles (10+ km)
Ceiling: at least 12,000 feet AGL
Clouds: few clouds at 3000 feet AGL
Weather: TS  (thunderstorm)

METAR text: LYBE 072230Z 11012KT 090V150 2000 +TSRA BKN030CB FEW013 19/18 Q1019 NOSIG
Conditions at: LYBE (BELGRADE/SURCIN , CS) observed 2230 UTC 07 August 2020
Temperature: 19.0°C (66°F)
Dewpoint: 18.0°C (64°F) [RH = 94%]
Pressure (altimeter): 30.09 inches Hg (1019.0 mb)
Winds: from the ESE (110 degrees) at 14 MPH (12 knots; 6.2 m/s)
Visibility: 1.24 miles (2.00 km)
Ceiling: 3000 feet AGL
Clouds: broken clouds at 3000 feet AGL
few clouds at 1300 feet AGL
Weather: +TSRA  (heavy rain associated with thunderstorm(s))

METAR text: LYBE 072200Z 17013KT 9999 -TSRA FEW030CB SCT040 20/18 Q1018 RERA BECMG 12015G25KT 5000 TSRA BKN030CB
Conditions at: LYBE (BELGRADE/SURCIN , CS) observed 2200 UTC 07 August 2020
Temperature: 20.0°C (68°F)
Dewpoint: 18.0°C (64°F) [RH = 88%]
Pressure (altimeter): 30.06 inches Hg (1018.0 mb)
Winds: from the S (170 degrees) at 15 MPH (13 knots; 6.7 m/s)
Visibility: 6 or more miles (10+ km)
Ceiling: at least 12,000 feet AGL
Clouds: few clouds at 3000 feet AGL
scattered clouds at 4000 feet AGL
Weather: -TSRA  (light rain associated with thunderstorm(s))

METAR text: LYBE 072130Z 18013KT 6000 TSRA SCT030CB SCT040 20/18 Q1018 NOSIG
Conditions at: LYBE (BELGRADE/SURCIN , CS) observed 2130 UTC 07 August 2020
Temperature: 20.0°C (68°F)
Dewpoint: 18.0°C (64°F) [RH = 88%]
Pressure (altimeter): 30.06 inches Hg (1018.0 mb)
Winds: from the S (180 degrees) at 15 MPH (13 knots; 6.7 m/s)
Visibility: 4 miles ( 6 km)
Ceiling: at least 12,000 feet AGL
Clouds: scattered clouds at 3000 feet AGL
scattered clouds at 4000 feet AGL
Weather: TSRA  (rain associated with thunderstorm(s))

METAR text: LYBE 072100Z 16012KT 9999 -TSRA SCT033CB 22/18 Q1018 TEMPO 09015G25KT 5000 TSRA BKN033CB
Conditions at: LYBE (BELGRADE/SURCIN , CS) observed 2100 UTC 07 August 2020
Temperature: 22.0°C (72°F)
Dewpoint: 18.0°C (64°F) [RH = 78%]
Pressure (altimeter): 30.06 inches Hg (1018.0 mb)
Winds: from the SSE (160 degrees) at 14 MPH (12 knots; 6.2 m/s)
Visibility: 6 or more miles (10+ km)
Ceiling: at least 12,000 feet AGL
Clouds: scattered clouds at 3300 feet AGL
Weather: -TSRA  (light rain associated with thunderstorm(s))

METAR text: LYBE 072030Z 18012KT 9999 FEW040 22/19 Q1018 NOSIG
Conditions at: LYBE (BELGRADE/SURCIN , CS) observed 2030 UTC 07 August 2020
Temperature: 22.0°C (72°F)
Dewpoint: 19.0°C (66°F) [RH = 83%]
Pressure (altimeter): 30.06 inches Hg (1018.0 mb)
Winds: from the S (180 degrees) at 14 MPH (12 knots; 6.2 m/s)
Visibility: 6 or more miles (10+ km)
Ceiling: at least 12,000 feet AGL
Clouds: few clouds at 4000 feet AGL
Weather: no significant weather observed at this time

METAR text: LYBE 072000Z 18006KT CAVOK 22/20 Q1017 NOSIG
Conditions at: LYBE (BELGRADE/SURCIN , CS) observed 2000 UTC 07 August 2020
Temperature: 22.0°C (72°F)
Dewpoint: 20.0°C (68°F) [RH = 88%]
Pressure (altimeter): 30.03 inches Hg (1017.0 mb)
Winds: from the S (180 degrees) at 7 MPH (6 knots; 3.1 m/s)
Visibility: 6 or more miles (10+ km)
Ceiling: ceiling and visibility are OK
Clouds: unknown
Weather: no significant weather observed at this time

METAR text: LYBE 071930Z 15007KT 9999 FEW040 22/20 Q1016 RESHRA NOSIG
Conditions at: LYBE (BELGRADE/SURCIN , CS) observed 1930 UTC 07 August 2020
Temperature: 22.0°C (72°F)
Dewpoint: 20.0°C (68°F) [RH = 88%]
Pressure (altimeter): 30.00 inches Hg (1016.0 mb)
Winds: from the SSE (150 degrees) at 8 MPH (7 knots; 3.6 m/s)
Visibility: 6 or more miles (10+ km)
Ceiling: at least 12,000 feet AGL
Clouds: few clouds at 4000 feet AGL
Weather: no significant weather observed at this time

METAR text: LYBE 071900Z 14006KT 9999 -SHRA FEW030TCU 22/20 Q1016 NOSIG
Conditions at: LYBE (BELGRADE/SURCIN , CS) observed 1900 UTC 07 August 2020
Temperature: 22.0°C (72°F)
Dewpoint: 20.0°C (68°F) [RH = 88%]
Pressure (altimeter): 30.00 inches Hg (1016.0 mb)
Winds: from the SE (140 degrees) at 7 MPH (6 knots; 3.1 m/s)
Visibility: 6 or more miles (10+ km)
Ceiling: at least 12,000 feet AGL
Clouds: few clouds at 3000 feet AGL
Weather: -SHRA  (light rain showers)

METAR text: LYBE 071830Z 28006KT CAVOK 22/20 Q1015 RETSRA TEMPO 5000TSRA SCT033CB
Conditions at: LYBE (BELGRADE/SURCIN , CS) observed 1830 UTC 07 August 2020
Temperature: 22.0°C (72°F)
Dewpoint: 20.0°C (68°F) [RH = 88%]
Pressure (altimeter): 29.97 inches Hg (1015.0 mb)
Winds: from the W (280 degrees) at 7 MPH (6 knots; 3.1 m/s)
Visibility: 6 or more miles (10+ km)
Ceiling: ceiling and visibility are OK
Clouds: unknown
Weather: no significant weather observed at this time

METAR text: LYBE 071800Z 24007KT 200V270 9999 -TSRA SCT033CB 22/20 Q1016 NOSIG
Conditions at: LYBE (BELGRADE/SURCIN , CS) observed 1800 UTC 07 August 2020
Temperature: 22.0°C (72°F)
Dewpoint: 20.0°C (68°F) [RH = 88%]
Pressure (altimeter): 30.00 inches Hg (1016.0 mb)
Winds: from the WSW (240 degrees) at 8 MPH (7 knots; 3.6 m/s)
Visibility: 6 or more miles (10+ km)
Ceiling: at least 12,000 feet AGL
Clouds: scattered clouds at 3300 feet AGL
Weather: -TSRA  (light rain associated with thunderstorm(s))

METAR text: LYBE 071730Z 29008KT 9999 TS FEW033CB SCT040 22/20 Q1016 TEMPO 12015G25KT 5000 TSRA BKN033CB
Conditions at: LYBE (BELGRADE/SURCIN , CS) observed 1730 UTC 07 August 2020
Temperature: 22.0°C (72°F)
Dewpoint: 20.0°C (68°F) [RH = 88%]
Pressure (altimeter): 30.00 inches Hg (1016.0 mb)
Winds: from the WNW (290 degrees) at 9 MPH (8 knots; 4.1 m/s)
Visibility: 6 or more miles (10+ km)
Ceiling: at least 12,000 feet AGL
Clouds: few clouds at 3300 feet AGL
scattered clouds at 4000 feet AGL
Weather: TS  (thunderstorm)

METAR text: LYBE 071700Z 28008KT 240V300 9999 FEW033TCU 24/19 Q1016 RETS NOSIG
Conditions at: LYBE (BELGRADE/SURCIN , CS) observed 1700 UTC 07 August 2020
Temperature: 24.0°C (75°F)
Dewpoint: 19.0°C (66°F) [RH = 74%]
Pressure (altimeter): 30.00 inches Hg (1016.0 mb)
Winds: from the W (280 degrees) at 9 MPH (8 knots; 4.1 m/s)
Visibility: 6 or more miles (10+ km)
Ceiling: at least 12,000 feet AGL
Clouds: few clouds at 3300 feet AGL
Weather: no significant weather observed at this time

METAR text: LYBE 071630Z VRB05KT 8000 -TSRA SCT033CB 26/18 Q1016 TEMPO 4000 TSRA
Conditions at: LYBE (BELGRADE/SURCIN , CS) observed 1630 UTC 07 August 2020
Temperature: 26.0°C (79°F)
Dewpoint: 18.0°C (64°F) [RH = 61%]
Pressure (altimeter): 30.00 inches Hg (1016.0 mb)
Winds: variable direction winds at 6 MPH (5 knots; 2.6 m/s)
Visibility: 5 miles ( 8 km)
Ceiling: at least 12,000 feet AGL
Clouds: scattered clouds at 3300 feet AGL
Weather: -TSRA  (light rain associated with thunderstorm(s))

METAR text: LYBE 071600Z 33013KT 9999 TS FEW033CB SCT040 27/19 Q1016 TEMPO 5000 TSRA
Conditions at: LYBE (BELGRADE/SURCIN , CS) observed 1600 UTC 07 August 2020
Temperature: 27.0°C (81°F)
Dewpoint: 19.0°C (66°F) [RH = 62%]
Pressure (altimeter): 30.00 inches Hg (1016.0 mb)
Winds: from the NNW (330 degrees) at 15 MPH (13 knots; 6.7 m/s)
Visibility: 6 or more miles (10+ km)
Ceiling: at least 12,000 feet AGL
Clouds: few clouds at 3300 feet AGL
scattered clouds at 4000 feet AGL
Weather: TS  (thunderstorm)

METAR text: LYBE 071530Z 31011KT CAVOK 28/19 Q1016 NOSIG
Conditions at: LYBE (BELGRADE/SURCIN , CS) observed 1530 UTC 07 August 2020
Temperature: 28.0°C (82°F)
Dewpoint: 19.0°C (66°F) [RH = 58%]
Pressure (altimeter): 30.00 inches Hg (1016.0 mb)
Winds: from the NW (310 degrees) at 13 MPH (11 knots; 5.7 m/s)
Visibility: 6 or more miles (10+ km)
Ceiling: ceiling and visibility are OK
Clouds: unknown
Weather: no significant weather observed at this time

METAR text: LYBE 071500Z 30011KT CAVOK 27/18 Q1015 NOSIG
Conditions at: LYBE (BELGRADE/SURCIN , CS) observed 1500 UTC 07 August 2020
Temperature: 27.0°C (81°F)
Dewpoint: 18.0°C (64°F) [RH = 58%]
Pressure (altimeter): 29.97 inches Hg (1015.0 mb)
Winds: from the WNW (300 degrees) at 13 MPH (11 knots; 5.7 m/s)
Visibility: 6 or more miles (10+ km)
Ceiling: ceiling and visibility are OK
Clouds: unknown
Weather: no significant weather observed at this time

METAR text: LYBE 071430Z 33008KT 300V360 CAVOK 29/17 Q1016 RMK WS ALL RWY NOSIG
Conditions at: LYBE (BELGRADE/SURCIN , CS) observed 1430 UTC 07 August 2020
Temperature: 29.0°C (84°F)
Dewpoint: 17.0°C (63°F) [RH = 48%]
Pressure (altimeter): 30.00 inches Hg (1016.0 mb)
Winds: from the NNW (330 degrees) at 9 MPH (8 knots; 4.1 m/s)
Visibility: 6 or more miles (10+ km)
Ceiling: ceiling and visibility are OK
Clouds: unknown
Weather: no significant weather observed at this time

METAR text: LYBE 071400Z 32010KT 300V010 9999 FEW040TCU 28/17 Q1016 RMK WS ALL RWY NOSIG
Conditions at: LYBE (BELGRADE/SURCIN , CS) observed 1400 UTC 07 August 2020
Temperature: 28.0°C (82°F)
Dewpoint: 17.0°C (63°F) [RH = 51%]
Pressure (altimeter): 30.00 inches Hg (1016.0 mb)
Winds: from the NW (320 degrees) at 12 MPH (10 knots; 5.1 m/s)
Visibility: 6 or more miles (10+ km)
Ceiling: at least 12,000 feet AGL
Clouds: few clouds at 4000 feet AGL
Weather: no significant weather observed at this time

METAR text: LYBE 071330Z 03010KT 340V070 9999 FEW033TCU 27/19 Q1016 RMK WS ALL RWY NOSIG
Conditions at: LYBE (BELGRADE/SURCIN , CS) observed 1330 UTC 07 August 2020
Temperature: 27.0°C (81°F)
Dewpoint: 19.0°C (66°F) [RH = 62%]
Pressure (altimeter): 30.00 inches Hg (1016.0 mb)
Winds: from the NNE (30 degrees) at 12 MPH (10 knots; 5.1 m/s)
Visibility: 6 or more miles (10+ km)
Ceiling: at least 12,000 feet AGL
Clouds: few clouds at 3300 feet AGL
Weather: no significant weather observed at this time

METAR text: LYBE 071300Z 26007KT CAVOK 29/17 Q1016 RETS RMK WS ALL RWY NOSIG
Conditions at: LYBE (BELGRADE/SURCIN , CS) observed 1300 UTC 07 August 2020
Temperature: 29.0°C (84°F)
Dewpoint: 17.0°C (63°F) [RH = 48%]
Pressure (altimeter): 30.00 inches Hg (1016.0 mb)
Winds: from the W (260 degrees) at 8 MPH (7 knots; 3.6 m/s)
Visibility: 6 or more miles (10+ km)
Ceiling: ceiling and visibility are OK
Clouds: unknown
Weather: no significant weather observed at this time

METAR text: LYBE 071230Z VRB04KT 9999 TS FEW033CB SCT046 28/17 Q1016 RMK WS ALL RWY NOSIG
Conditions at: LYBE (BELGRADE/SURCIN , CS) observed 1230 UTC 07 August 2020
Temperature: 28.0°C (82°F)
Dewpoint: 17.0°C (63°F) [RH = 51%]
Pressure (altimeter): 30.00 inches Hg (1016.0 mb)
Winds: variable direction winds at 5 MPH (4 knots; 2.1 m/s)
Visibility: 6 or more miles (10+ km)
Ceiling: at least 12,000 feet AGL
Clouds: few clouds at 3300 feet AGL
scattered clouds at 4600 feet AGL
Weather: TS  (thunderstorm)

METAR text: LYBE 071200Z 01007KT 9999 TS FEW033CB SCT043 29/16 Q1016 TEMPO VRB15G25KT 4000 TSRA
Conditions at: LYBE (BELGRADE/SURCIN , CS) observed 1200 UTC 07 August 2020
Temperature: 29.0°C (84°F)
Dewpoint: 16.0°C (61°F) [RH = 45%]
Pressure (altimeter): 30.00 inches Hg (1016.0 mb)
Winds: from the N (10 degrees) at 8 MPH (7 knots; 3.6 m/s)
Visibility: 6 or more miles (10+ km)
Ceiling: at least 12,000 feet AGL
Clouds: few clouds at 3300 feet AGL
scattered clouds at 4300 feet AGL
Weather: TS  (thunderstorm)

METAR text: LYBE 071130Z 01008KT 340V040 CAVOK 30/18 Q1016 NOSIG
Conditions at: LYBE (BELGRADE/SURCIN , CS) observed 1130 UTC 07 August 2020
Temperature: 30.0°C (86°F)
Dewpoint: 18.0°C (64°F) [RH = 49%]
Pressure (altimeter): 30.00 inches Hg (1016.0 mb)
Winds: from the N (10 degrees) at 9 MPH (8 knots; 4.1 m/s)
Visibility: 6 or more miles (10+ km)
Ceiling: ceiling and visibility are OK
Clouds: unknown
Weather: no significant weather observed at this time

METAR text: LYBE 071100Z 02008KT 320V060 CAVOK 30/18 Q1017 NOSIG
Conditions at: LYBE (BELGRADE/SURCIN , CS) observed 1100 UTC 07 August 2020
Temperature: 30.0°C (86°F)
Dewpoint: 18.0°C (64°F) [RH = 49%]
Pressure (altimeter): 30.03 inches Hg (1017.0 mb)
Winds: from the NNE (20 degrees) at 9 MPH (8 knots; 4.1 m/s)
Visibility: 6 or more miles (10+ km)
Ceiling: ceiling and visibility are OK
Clouds: unknown
Weather: no significant weather observed at this time

METAR text: LYBE 071030Z 02010KT CAVOK 30/18 Q1016 NOSIG
Conditions at: LYBE (BELGRADE/SURCIN , CS) observed 1030 UTC 07 August 2020
Temperature: 30.0°C (86°F)
Dewpoint: 18.0°C (64°F) [RH = 49%]
Pressure (altimeter): 30.00 inches Hg (1016.0 mb)
Winds: from the NNE (20 degrees) at 12 MPH (10 knots; 5.1 m/s)
Visibility: 6 or more miles (10+ km)
Ceiling: ceiling and visibility are OK
Clouds: unknown
Weather: no significant weather observed at this time

METAR text: LYBE 071000Z 04006KT 360V080 CAVOK 30/16 Q1016 NOSIG
Conditions at: LYBE (BELGRADE/SURCIN , CS) observed 1000 UTC 07 August 2020
Temperature: 30.0°C (86°F)
Dewpoint: 16.0°C (61°F) [RH = 43%]
Pressure (altimeter): 30.00 inches Hg (1016.0 mb)
Winds: from the NE (40 degrees) at 7 MPH (6 knots; 3.1 m/s)
Visibility: 6 or more miles (10+ km)
Ceiling: ceiling and visibility are OK
Clouds: unknown
Weather: no significant weather observed at this time

Forecast for: LYBE (BELGRADE/SURCIN , CS)
Text: TAF LYBE 081700Z 0818/0918 35006KT CAVOK TX30/0914Z TN19/0903Z
Forecast period: 1800 UTC 08 August 2020 to 1800 UTC 09 August 2020
Forecast type: FROM: standard forecast or significant change
Winds: from the N (350 degrees) at 7 MPH (6 knots; 3.1 m/s)
Visibility: 6 or more miles (10+ km)
Ceiling: unknown
Clouds: missing
Weather: no significant weather forecast for this period
Text: TEMPO 0901/0903 3000 BR
Forecast period: 0100 to 0300 UTC 09 August 2020
Forecast type: TEMPORARY: The following changes expected for less than half the time period
Visibility: 1.86 miles (2.99 km)
Ceiling: unknown
Clouds: missing
Weather: BR  (mist)
Text: TEMPO 0903/0905 1200 BR
Forecast period: 0300 to 0500 UTC 09 August 2020
Forecast type: TEMPORARY: The following changes expected for less than half the time period
Visibility: 0.75 miles (1.21 km)
Ceiling: unknown
Clouds: missing
Weather: BR  (mist)
Text: TEMPO 0913/0917 VRB15G25KT 5000 TSRA SCT030CB SCT035
Forecast period: 1300 to 1700 UTC 09 August 2020
Forecast type: TEMPORARY: The following changes expected for less than half the time period
Winds: variable direction winds at 17 MPH (15 knots; 7.7 m/s)
gusting to 29 MPH (25 knots; 12.9 m/s)
Visibility: 3 miles (5 km)
Ceiling: at least 12,000 feet AGL
Clouds: scattered clouds at 3000 feet AGL
scattered clouds at 3500 feet AGL
Weather: TSRA  (rain associated with thunderstorm(s))